sensor_id;sensor_type;location;lat;lon;timestamp;temperature;humidity
49238;DHT22;35069;47.906;1.892;2022-09-09T06:02:05;17.30;99.90
49238;DHT22;35069;47.906;1.892;2022-09-09T06:04:31;17.30;99.90
49238;DHT22;35069;47.906;1.892;2022-09-09T06:06:57;17.30;99.90
49238;DHT22;35069;47.906;1.892;2022-09-09T06:09:23;17.30;99.90
49238;DHT22;35069;47.906;1.892;2022-09-09T06:11:48;17.30;99.90
49238;DHT22;35069;47.906;1.892;2022-09-09T06:14:14;17.30;99.90
49238;DHT22;35069;47.906;1.892;2022-09-09T06:16:39;17.30;99.90
49238;DHT22;35069;47.906;1.892;2022-09-09T06:19:07;17.40;99.90
49238;DHT22;35069;47.906;1.892;2022-09-09T06:21:35;17.50;99.90
49238;DHT22;35069;47.906;1.892;2022-09-09T06:24:02;17.50;99.90
49238;DHT22;35069;47.906;1.892;2022-09-09T06:26:31;17.50;99.90
49238;DHT22;35069;47.906;1.892;2022-09-09T06:28:58;17.60;99.90
49238;DHT22;35069;47.906;1.892;2022-09-09T06:31:27;17.60;99.90
49238;DHT22;35069;47.906;1.892;2022-09-09T06:33:56;17.60;99.90
49238;DHT22;35069;47.906;1.892;2022-09-09T06:36:27;17.50;99.90
49238;DHT22;35069;47.906;1.892;2022-09-09T06:38:53;17.60;99.90
49238;DHT22;35069;47.906;1.892;2022-09-09T06:41:20;17.90;99.90
49238;DHT22;35069;47.906;1.892;2022-09-09T06:43:46;18.50;99.90
49238;DHT22;35069;47.906;1.892;2022-09-09T06:48:40;18.60;99.90
49238;DHT22;35069;47.906;1.892;2022-09-09T06:51:11;18.80;99.90
49238;DHT22;35069;47.906;1.892;2022-09-09T06:53:38;19.10;99.90
49238;DHT22;35069;47.906;1.892;2022-09-09T06:58:40;19.30;99.90
49238;DHT22;35069;47.906;1.892;2022-09-09T15:02:21;23.40;58.80
49238;DHT22;35069;47.906;1.892;2022-09-09T15:04:47;23.40;59.20
49238;DHT22;35069;47.906;1.892;2022-09-09T15:07:15;23.40;59.20
49238;DHT22;35069;47.906;1.892;2022-09-09T15:09:42;23.50;59.20
49238;DHT22;35069;47.906;1.892;2022-09-09T15:12:07;23.60;59.00
49238;DHT22;35069;47.906;1.892;2022-09-09T15:14:33;23.60;58.80
49238;DHT22;35069;47.906;1.892;2022-09-09T15:17:00;23.70;58.60
49238;DHT22;35069;47.906;1.892;2022-09-09T15:19:26;23.60;58.20
49238;DHT22;35069;47.906;1.892;2022-09-09T15:21:52;23.50;58.10
49238;DHT22;35069;47.906;1.892;2022-09-09T15:24:18;23.40;58.30
49238;DHT22;35069;47.906;1.892;2022-09-09T15:26:43;23.30;58.80
49238;DHT22;35069;47.906;1.892;2022-09-09T15:29:09;23.30;59.00
49238;DHT22;35069;47.906;1.892;2022-09-09T15:31:35;23.20;58.90
49238;DHT22;35069;47.906;1.892;2022-09-09T15:34:06;23.10;59.20
49238;DHT22;35069;47.906;1.892;2022-09-09T15:36:35;23.10;59.60
49238;DHT22;35069;47.906;1.892;2022-09-09T15:39:03;23.00;60.00
49238;DHT22;35069;47.906;1.892;2022-09-09T15:41:29;23.10;60.40
49238;DHT22;35069;47.906;1.892;2022-09-09T15:43:57;23.00;60.60
49238;DHT22;35069;47.906;1.892;2022-09-09T15:48:51;22.80;61.20
49238;DHT22;35069;47.906;1.892;2022-09-09T15:51:17;22.80;61.60
49238;DHT22;35069;47.906;1.892;2022-09-09T15:53:44;22.70;62.00
49238;DHT22;35069;47.906;1.892;2022-09-09T15:56:10;22.80;62.30
49238;DHT22;35069;47.906;1.892;2022-09-09T15:58:36;22.80;62.40
49238;DHT22;35069;47.906;1.892;2022-09-09T16:01:06;22.70;62.50
49238;DHT22;35069;47.906;1.892;2022-09-09T16:03:39;22.70;63.00
49238;DHT22;35069;47.906;1.892;2022-09-09T16:06:06;22.70;63.30
49238;DHT22;35069;47.906;1.892;2022-09-09T16:08:34;22.60;64.40
49238;DHT22;35069;47.906;1.892;2022-09-09T16:11:07;22.60;63.70
49238;DHT22;35069;47.906;1.892;2022-09-09T16:13:38;22.50;62.60
49238;DHT22;35069;47.906;1.892;2022-09-09T16:16:09;22.50;63.20
49238;DHT22;35069;47.906;1.892;2022-09-09T16:18:45;22.60;63.30
49238;DHT22;35069;47.906;1.892;2022-09-09T16:21:15;22.60;63.40
49238;DHT22;35069;47.906;1.892;2022-09-09T16:23:41;22.60;63.50
49238;DHT22;35069;47.906;1.892;2022-09-09T16:26:08;22.70;63.60
49238;DHT22;35069;47.906;1.892;2022-09-09T16:28:35;22.60;63.80
49238;DHT22;35069;47.906;1.892;2022-09-09T16:31:04;22.70;64.10
49238;DHT22;35069;47.906;1.892;2022-09-09T16:33:30;22.70;64.10
49238;DHT22;35069;47.906;1.892;2022-09-09T16:35:55;22.70;63.90
49238;DHT22;35069;47.906;1.892;2022-09-09T16:38:21;22.70;63.70
49238;DHT22;35069;47.906;1.892;2022-09-09T16:40:47;22.70;63.50
49238;DHT22;35069;47.906;1.892;2022-09-09T16:43:15;22.70;63.70
49238;DHT22;35069;47.906;1.892;2022-09-09T16:45:42;22.70;63.60
49238;DHT22;35069;47.906;1.892;2022-09-09T16:48:08;22.50;63.50
49238;DHT22;35069;47.906;1.892;2022-09-09T16:50:34;22.50;63.80
49238;DHT22;35069;47.906;1.892;2022-09-09T16:53:00;22.40;64.00
49238;DHT22;35069;47.906;1.892;2022-09-09T16:55:28;22.30;64.20
49238;DHT22;35069;47.906;1.892;2022-09-09T16:57:54;22.30;64.30
49238;DHT22;35069;47.906;1.892;2022-09-09T17:00:20;22.20;64.50
49238;DHT22;35069;47.906;1.892;2022-09-09T17:02:45;22.10;64.70
49238;DHT22;35069;47.906;1.892;2022-09-09T17:05:11;22.00;65.00
49238;DHT22;35069;47.906;1.892;2022-09-09T17:07:37;21.90;65.40
49238;DHT22;35069;47.906;1.892;2022-09-09T17:10:04;21.80;65.80
49238;DHT22;35069;47.906;1.892;2022-09-09T17:12:31;21.70;66.10
49238;DHT22;35069;47.906;1.892;2022-09-09T17:14:57;21.70;66.70
49238;DHT22;35069;47.906;1.892;2022-09-09T17:17:24;21.70;67.70
49238;DHT22;35069;47.906;1.892;2022-09-09T17:19:50;21.50;70.40
49238;DHT22;35069;47.906;1.892;2022-09-09T17:22:16;21.20;73.60
49238;DHT22;35069;47.906;1.892;2022-09-09T17:24:41;21.20;76.30
49238;DHT22;35069;47.906;1.892;2022-09-09T17:27:08;21.10;77.70
49238;DHT22;35069;47.906;1.892;2022-09-09T17:29:34;21.00;79.60
49238;DHT22;35069;47.906;1.892;2022-09-09T17:32:02;20.90;80.70
49238;DHT22;35069;47.906;1.892;2022-09-09T17:34:27;20.80;82.00
49238;DHT22;35069;47.906;1.892;2022-09-09T17:36:53;20.80;82.90
49238;DHT22;35069;47.906;1.892;2022-09-09T17:39:19;20.80;83.70
49238;DHT22;35069;47.906;1.892;2022-09-09T17:41:44;20.80;85.20
49238;DHT22;35069;47.906;1.892;2022-09-09T17:44:10;20.70;86.10
49238;DHT22;35069;47.906;1.892;2022-09-09T17:46:39;20.70;87.00
49238;DHT22;35069;47.906;1.892;2022-09-09T17:49:09;20.70;87.40
49238;DHT22;35069;47.906;1.892;2022-09-09T17:51:35;20.70;87.30
49238;DHT22;35069;47.906;1.892;2022-09-09T17:54:04;20.60;87.20
49238;DHT22;35069;47.906;1.892;2022-09-09T17:56:31;20.50;88.30
49238;DHT22;35069;47.906;1.892;2022-09-09T17:58:58;20.50;89.10
49238;DHT22;35069;47.906;1.892;2022-09-09T18:01:27;20.50;89.20
49238;DHT22;35069;47.906;1.892;2022-09-09T18:03:53;20.40;90.00
49238;DHT22;35069;47.906;1.892;2022-09-09T18:06:23;20.30;90.50
49238;DHT22;35069;47.906;1.892;2022-09-09T18:08:50;20.20;90.80
49238;DHT22;35069;47.906;1.892;2022-09-09T18:11:18;20.20;91.60
49238;DHT22;35069;47.906;1.892;2022-09-09T18:13:51;20.10;91.40
49238;DHT22;35069;47.906;1.892;2022-09-09T18:16:18;20.10;91.70
49238;DHT22;35069;47.906;1.892;2022-09-09T18:18:44;20.10;91.80
49238;DHT22;35069;47.906;1.892;2022-09-09T18:21:10;20.10;91.90
49238;DHT22;35069;47.906;1.892;2022-09-09T18:23:40;20.10;92.20
49238;DHT22;35069;47.906;1.892;2022-09-09T18:26:12;20.10;92.40
49238;DHT22;35069;47.906;1.892;2022-09-09T18:28:40;20.10;92.70
49238;DHT22;35069;47.906;1.892;2022-09-09T18:31:11;20.00;93.00
49238;DHT22;35069;47.906;1.892;2022-09-09T18:33:40;20.10;93.80
49238;DHT22;35069;47.906;1.892;2022-09-09T18:36:14;20.00;94.00
49238;DHT22;35069;47.906;1.892;2022-09-09T18:38:41;19.90;94.70
49238;DHT22;35069;47.906;1.892;2022-09-09T18:43:44;19.90;95.60
49238;DHT22;35069;47.906;1.892;2022-09-09T18:46:10;19.90;95.80
49238;DHT22;35069;47.906;1.892;2022-09-09T18:48:37;19.90;95.90
49238;DHT22;35069;47.906;1.892;2022-09-09T18:51:04;19.90;96.20
49238;DHT22;35069;47.906;1.892;2022-09-09T18:53:31;19.90;96.30
49238;DHT22;35069;47.906;1.892;2022-09-09T18:55:58;19.90;96.30
49238;DHT22;35069;47.906;1.892;2022-09-09T18:58:24;19.90;96.50
49238;DHT22;35069;47.906;1.892;2022-09-09T19:00:50;19.80;96.40
49238;DHT22;35069;47.906;1.892;2022-09-09T19:03:15;19.80;96.60
49238;DHT22;35069;47.906;1.892;2022-09-09T19:05:41;19.70;96.80
49238;DHT22;35069;47.906;1.892;2022-09-09T19:08:07;19.70;97.10
49238;DHT22;35069;47.906;1.892;2022-09-09T19:10:35;19.70;97.30
49238;DHT22;35069;47.906;1.892;2022-09-09T19:13:01;19.60;97.20
49238;DHT22;35069;47.906;1.892;2022-09-09T19:15:27;19.60;97.30
49238;DHT22;35069;47.906;1.892;2022-09-09T19:17:54;19.60;97.70
49238;DHT22;35069;47.906;1.892;2022-09-09T19:20:21;19.60;97.80
49238;DHT22;35069;47.906;1.892;2022-09-09T19:22:48;19.50;97.80
49238;DHT22;35069;47.906;1.892;2022-09-09T19:25:14;19.50;97.90
49238;DHT22;35069;47.906;1.892;2022-09-09T19:27:41;19.40;98.00
49238;DHT22;35069;47.906;1.892;2022-09-09T19:30:10;19.40;98.00
49238;DHT22;35069;47.906;1.892;2022-09-09T19:32:38;19.50;98.00
49238;DHT22;35069;47.906;1.892;2022-09-09T19:35:04;19.40;98.10
49238;DHT22;35069;47.906;1.892;2022-09-09T19:37:31;19.40;98.40
49238;DHT22;35069;47.906;1.892;2022-09-09T19:39:57;19.30;98.50
49238;DHT22;35069;47.906;1.892;2022-09-09T19:42:23;19.20;98.90
49238;DHT22;35069;47.906;1.892;2022-09-09T19:44:49;19.20;98.80
49238;DHT22;35069;47.906;1.892;2022-09-09T19:47:16;19.20;98.80
49238;DHT22;35069;47.906;1.892;2022-09-09T19:49:42;19.10;99.30
49238;DHT22;35069;47.906;1.892;2022-09-09T19:52:08;19.10;99.20
49238;DHT22;35069;47.906;1.892;2022-09-09T19:54:34;19.10;99.50
49238;DHT22;35069;47.906;1.892;2022-09-09T19:57:00;19.10;99.50
49238;DHT22;35069;47.906;1.892;2022-09-09T19:59:26;19.00;99.80
49238;DHT22;35069;47.906;1.892;2022-09-09T20:01:52;19.00;99.90
49238;DHT22;35069;47.906;1.892;2022-09-09T20:04:18;19.00;99.90
49238;DHT22;35069;47.906;1.892;2022-09-09T20:06:44;19.00;99.90
49238;DHT22;35069;47.906;1.892;2022-09-09T20:09:13;19.00;99.90
49238;DHT22;35069;47.906;1.892;2022-09-09T20:11:39;19.00;99.90
49238;DHT22;35069;47.906;1.892;2022-09-09T20:14:05;19.00;99.90
49238;DHT22;35069;47.906;1.892;2022-09-09T20:16:31;19.00;99.90
49238;DHT22;35069;47.906;1.892;2022-09-09T20:18:59;19.00;99.90
49238;DHT22;35069;47.906;1.892;2022-09-09T20:21:33;19.00;99.90
49238;DHT22;35069;47.906;1.892;2022-09-09T20:24:01;18.90;99.90
49238;DHT22;35069;47.906;1.892;2022-09-09T20:26:28;18.90;99.90
49238;DHT22;35069;47.906;1.892;2022-09-09T20:29:01;18.80;99.90
49238;DHT22;35069;47.906;1.892;2022-09-09T20:31:29;18.80;99.90
49238;DHT22;35069;47.906;1.892;2022-09-09T20:33:56;18.80;99.90
49238;DHT22;35069;47.906;1.892;2022-09-09T20:36:27;18.80;99.90
49238;DHT22;35069;47.906;1.892;2022-09-09T20:38:58;18.80;99.90
49238;DHT22;35069;47.906;1.892;2022-09-09T20:41:29;18.80;99.90
49238;DHT22;35069;47.906;1.892;2022-09-09T20:43:58;18.70;99.90
49238;DHT22;35069;47.906;1.892;2022-09-09T20:46:28;18.70;99.90
49238;DHT22;35069;47.906;1.892;2022-09-09T20:48:55;18.70;99.90
49238;DHT22;35069;47.906;1.892;2022-09-09T20:51:22;18.70;99.90
49238;DHT22;35069;47.906;1.892;2022-09-09T20:53:56;18.70;99.90
49238;DHT22;35069;47.906;1.892;2022-09-09T20:56:24;18.80;99.90
49238;DHT22;35069;47.906;1.892;2022-09-09T20:58:49;18.80;99.90
49238;DHT22;35069;47.906;1.892;2022-09-09T21:01:16;18.80;99.90
49238;DHT22;35069;47.906;1.892;2022-09-09T21:03:43;18.90;99.90
49238;DHT22;35069;47.906;1.892;2022-09-09T21:06:09;18.90;99.90
49238;DHT22;35069;47.906;1.892;2022-09-09T21:08:34;18.80;99.90
49238;DHT22;35069;47.906;1.892;2022-09-09T21:11:01;18.80;99.90
49238;DHT22;35069;47.906;1.892;2022-09-09T21:13:28;18.90;99.90
49238;DHT22;35069;47.906;1.892;2022-09-09T21:15:53;18.90;99.90
49238;DHT22;35069;47.906;1.892;2022-09-09T21:18:20;18.80;99.90
49238;DHT22;35069;47.906;1.892;2022-09-09T21:20:47;18.80;99.90
49238;DHT22;35069;47.906;1.892;2022-09-09T21:23:14;18.80;99.90
49238;DHT22;35069;47.906;1.892;2022-09-09T21:25:40;18.80;99.90
49238;DHT22;35069;47.906;1.892;2022-09-09T21:28:06;18.80;99.90
49238;DHT22;35069;47.906;1.892;2022-09-09T21:30:33;18.80;99.90
49238;DHT22;35069;47.906;1.892;2022-09-09T21:32:59;18.80;99.90
49238;DHT22;35069;47.906;1.892;2022-09-09T21:35:25;18.70;99.90
49238;DHT22;35069;47.906;1.892;2022-09-09T21:37:51;18.70;99.90
49238;DHT22;35069;47.906;1.892;2022-09-09T21:40:17;18.80;99.90
49238;DHT22;35069;47.906;1.892;2022-09-09T21:42:42;18.80;99.90
49238;DHT22;35069;47.906;1.892;2022-09-09T21:45:08;18.70;99.90
49238;DHT22;35069;47.906;1.892;2022-09-09T21:47:34;18.80;99.90
49238;DHT22;35069;47.906;1.892;2022-09-09T21:50:00;18.80;99.90
49238;DHT22;35069;47.906;1.892;2022-09-09T21:52:27;18.80;99.90
49238;DHT22;35069;47.906;1.892;2022-09-09T21:54:52;18.80;99.90
49238;DHT22;35069;47.906;1.892;2022-09-09T21:57:18;18.80;99.90
49238;DHT22;35069;47.906;1.892;2022-09-09T21:59:44;18.80;99.90
